createdAt,value
2022-12-18T00:01:42.400Z,98005.81
2022-12-18T00:04:19.854Z,97998.47
2022-12-18T00:06:46.628Z,97986.44
2022-12-18T00:09:15.025Z,97970.78
2022-12-18T00:11:41.799Z,97996.38
2022-12-18T00:14:09.777Z,97986.72
2022-12-18T00:16:37.904Z,97992.34
2022-12-18T00:19:05.524Z,98001.84
2022-12-18T00:21:33.309Z,98003.78
2022-12-18T00:24:01.045Z,98004.38
2022-12-18T00:26:33.769Z,97991.81
2022-12-18T00:29:12.120Z,97993.63
2022-12-18T00:31:39.176Z,97992.25
2022-12-18T00:34:05.802Z,97989.44
2022-12-18T00:36:35.126Z,97992.53
2022-12-18T00:39:04.157Z,97995.00
2022-12-18T00:41:49.206Z,97983.72
2022-12-18T00:44:18.261Z,97982.50
2022-12-18T00:46:46.948Z,97978.78
2022-12-18T00:49:14.280Z,97982.34
2022-12-18T00:51:41.075Z,97995.09
2022-12-18T00:54:07.870Z,98003.44
2022-12-18T00:56:39.399Z,98004.16
2022-12-18T00:59:12.298Z,98002.88
2022-12-18T01:01:39.384Z,98019.56
2022-12-18T01:04:06.268Z,98013.38
2022-12-18T01:06:32.829Z,98020.53
2022-12-18T01:08:59.547Z,98021.91
2022-12-18T01:11:26.999Z,98024.81
2022-12-18T01:13:55.087Z,98028.72
2022-12-18T01:16:23.795Z,98025.41
2022-12-18T01:18:54.576Z,98023.47
2022-12-18T01:21:22.290Z,98028.19
2022-12-18T01:23:53.307Z,98026.13
2022-12-18T01:26:20.409Z,98037.28
2022-12-18T01:28:46.941Z,98034.00
2022-12-18T01:31:22.560Z,98039.88
2022-12-18T01:33:49.856Z,98039.34
2022-12-18T01:36:31.037Z,98039.53
2022-12-18T01:38:59.939Z,98034.69
2022-12-18T01:41:49.085Z,98047.50
2022-12-18T01:44:52.645Z,98054.00
2022-12-18T01:47:53.415Z,98045.88
2022-12-18T01:50:35.018Z,98039.00
2022-12-18T01:53:13.668Z,98037.06
2022-12-18T01:55:49.466Z,98038.00
2022-12-18T01:58:17.129Z,98034.94
2022-12-18T02:00:44.185Z,98038.56
2022-12-18T02:03:12.105Z,98031.81
2022-12-18T02:06:12.329Z,98034.41
2022-12-18T02:08:52.705Z,98029.19
2022-12-18T02:11:27.824Z,98014.13
2022-12-18T02:14:12.355Z,98036.53
2022-12-18T02:17:02.093Z,98039.78
2022-12-18T02:19:59.176Z,98036.94
2022-12-18T02:22:28.870Z,98032.31
2022-12-18T02:25:14.144Z,98036.09
2022-12-18T02:27:42.994Z,98024.28
2022-12-18T02:30:10.472Z,98024.91
2022-12-18T02:32:45.835Z,98027.91
2022-12-18T02:35:28.405Z,98032.97
2022-12-18T02:37:59.057Z,98017.50
2022-12-18T02:40:30.183Z,98029.63
2022-12-18T02:43:10.514Z,98036.56
2022-12-18T02:45:48.369Z,98035.31
2022-12-18T02:48:24.854Z,98016.00
2022-12-18T02:51:11.942Z,98012.53
2022-12-18T02:53:46.149Z,98033.69
2022-12-18T02:56:18.485Z,98028.97
2022-12-18T02:59:07.295Z,98017.44
2022-12-18T03:02:19.144Z,98018.13
2022-12-18T03:04:58.191Z,98034.28
2022-12-18T03:07:36.182Z,98035.53
2022-12-18T03:10:07.920Z,98024.28
2022-12-18T03:12:44.419Z,98032.19
2022-12-18T03:15:17.931Z,98032.16
2022-12-18T03:18:05.942Z,98030.84
2022-12-18T03:20:35.242Z,97976.44
2022-12-18T03:23:18.996Z,98014.50
2022-12-18T03:25:51.869Z,98036.97
2022-12-18T03:28:22.625Z,98036.75
2022-12-18T03:31:00.050Z,98028.28
2022-12-18T03:33:41.212Z,98011.13
2022-12-18T03:36:08.451Z,98029.09
2022-12-18T03:38:35.192Z,98030.13
2022-12-18T03:41:04.817Z,98032.78
2022-12-18T03:43:46.775Z,98032.28
2022-12-18T03:46:28.348Z,98035.13
2022-12-18T03:49:15.781Z,98034.81
2022-12-18T03:52:06.083Z,98039.63
2022-12-18T03:54:34.894Z,98035.31
2022-12-18T03:57:19.167Z,98032.06
2022-12-18T03:59:50.502Z,98045.56
2022-12-18T04:02:19.908Z,98034.72
2022-12-18T04:04:51.771Z,98045.66
2022-12-18T04:07:19.458Z,98026.25
2022-12-18T04:09:47.442Z,98042.69
2022-12-18T04:12:14.850Z,98024.19
2022-12-18T04:14:41.633Z,98015.69
2022-12-18T04:17:09.584Z,98044.19
2022-12-18T04:19:37.027Z,98022.41
2022-12-18T04:22:04.074Z,98047.03
2022-12-18T04:24:36.876Z,98054.94
2022-12-18T04:27:14.239Z,98054.34
2022-12-18T04:29:44.936Z,98063.44
2022-12-18T04:32:11.651Z,98070.06
2022-12-18T04:34:40.123Z,98064.88
2022-12-18T04:37:07.315Z,98059.56
2022-12-18T04:39:33.995Z,98058.31
2022-12-18T04:42:06.606Z,98062.31
2022-12-18T04:44:34.265Z,98065.28
2022-12-18T04:47:00.916Z,98063.81
2022-12-18T04:49:27.429Z,98056.50
2022-12-18T04:51:54.251Z,98065.00
2022-12-18T04:54:21.149Z,98057.22
2022-12-18T04:56:47.961Z,98070.97
2022-12-18T04:59:14.584Z,98067.63
2022-12-18T05:01:41.281Z,98051.28
2022-12-18T05:04:07.919Z,98065.16
2022-12-18T05:06:34.778Z,98074.38
2022-12-18T05:09:01.329Z,98073.66
2022-12-18T05:11:28.228Z,98075.41
2022-12-18T05:13:54.727Z,98077.31
2022-12-18T05:16:22.544Z,98075.88
2022-12-18T05:18:49.111Z,98086.25
2022-12-18T05:21:15.647Z,98076.50
2022-12-18T05:23:42.769Z,98087.34
2022-12-18T05:26:15.049Z,98079.06
2022-12-18T05:28:41.646Z,98094.31
2022-12-18T05:31:08.278Z,98090.72
2022-12-18T05:33:35.721Z,98095.41
2022-12-18T05:36:04.720Z,98087.53
2022-12-18T05:38:33.483Z,98101.19
2022-12-18T05:41:00.253Z,98092.94
2022-12-18T05:43:28.768Z,98080.28
2022-12-18T05:45:55.794Z,98054.50
2022-12-18T05:48:23.146Z,98061.84
2022-12-18T05:50:51.575Z,98042.41
2022-12-18T05:53:21.319Z,98070.22
2022-12-18T05:55:48.893Z,98074.53
2022-12-18T05:58:16.483Z,98086.22
2022-12-18T06:00:47.901Z,98078.41
2022-12-18T06:03:15.071Z,98083.41
2022-12-18T06:05:45.244Z,98082.22
2022-12-18T06:08:14.966Z,98095.31
2022-12-18T06:10:41.803Z,98096.06
2022-12-18T06:13:08.972Z,98099.53
2022-12-18T06:15:38.273Z,98099.78
2022-12-18T06:18:05.157Z,98101.91
2022-12-18T06:20:33.661Z,98100.31
2022-12-18T06:23:00.951Z,98101.47
2022-12-18T06:25:28.036Z,98100.97
2022-12-18T06:27:54.762Z,98105.97
2022-12-18T06:30:21.426Z,98075.22
2022-12-18T06:32:54.603Z,98077.00
2022-12-18T06:35:23.316Z,98088.34
2022-12-18T06:37:49.862Z,98101.59
2022-12-18T06:40:17.693Z,98118.06
2022-12-18T06:42:44.749Z,98123.56
2022-12-18T06:45:12.488Z,98126.94
2022-12-18T06:47:39.078Z,98118.34
2022-12-18T06:50:06.538Z,98122.63
2022-12-18T06:52:34.505Z,98121.59
2022-12-18T06:55:01.666Z,98120.75
2022-12-18T06:57:28.502Z,98125.44
2022-12-18T06:59:55.053Z,98128.59
2022-12-18T07:02:21.756Z,98087.47
2022-12-18T07:04:48.505Z,98124.38
2022-12-18T07:07:15.068Z,98128.25
2022-12-18T07:09:43.183Z,98124.53
2022-12-18T07:12:09.728Z,98136.06
2022-12-18T07:14:36.296Z,98137.19
2022-12-18T07:17:03.293Z,98124.66
2022-12-18T07:19:30.783Z,98137.50
2022-12-18T07:21:58.015Z,98124.50
2022-12-18T07:24:24.555Z,98130.91
2022-12-18T07:26:51.104Z,98135.53
2022-12-18T07:29:18.024Z,98133.50
2022-12-18T07:31:44.829Z,98137.31
2022-12-18T07:34:15.605Z,98131.22
2022-12-18T07:36:42.548Z,98128.50
2022-12-18T07:39:09.459Z,98107.72
2022-12-18T07:41:36.094Z,98135.53
2022-12-18T07:44:13.543Z,98134.75
2022-12-18T07:46:40.111Z,98118.09
2022-12-18T07:49:06.856Z,98136.81
2022-12-18T07:51:33.394Z,98141.69
2022-12-18T07:54:00.067Z,98142.41
2022-12-18T07:56:28.576Z,98151.50
2022-12-18T07:58:56.748Z,98148.38
2022-12-18T08:01:23.472Z,98152.59
2022-12-18T08:03:50.220Z,98157.94
2022-12-18T08:06:19.109Z,98159.34
2022-12-18T08:08:45.643Z,98158.97
2022-12-18T08:11:12.184Z,98169.78
2022-12-18T08:13:39.224Z,98164.38
2022-12-18T08:16:08.661Z,98173.44
2022-12-18T08:18:37.959Z,98167.41
2022-12-18T08:21:14.804Z,98167.75
2022-12-18T08:23:43.414Z,98171.69
2022-12-18T08:26:13.070Z,98183.66
2022-12-18T08:28:40.016Z,98164.91
2022-12-18T08:31:07.389Z,98184.09
2022-12-18T08:33:49.032Z,98185.88
2022-12-18T08:36:20.071Z,98187.84
2022-12-18T08:38:47.225Z,98190.22
2022-12-18T08:41:16.137Z,98185.69
2022-12-18T08:44:01.673Z,98190.50
2022-12-18T08:46:35.279Z,98185.94
2022-12-18T08:49:01.995Z,98157.97
2022-12-18T08:51:29.472Z,98181.13
2022-12-18T08:53:56.132Z,98186.19
2022-12-18T08:56:23.064Z,98184.31
2022-12-18T08:58:53.160Z,98181.13
2022-12-18T09:01:20.219Z,98176.06
2022-12-18T09:03:46.853Z,98177.16
2022-12-18T09:06:18.431Z,98165.72
2022-12-18T09:08:45.828Z,98163.50
2022-12-18T09:11:21.992Z,98177.19
2022-12-18T09:13:49.053Z,98156.50
2022-12-18T09:16:15.743Z,98174.75
2022-12-18T09:18:42.719Z,98170.72
2022-12-18T09:21:21.400Z,98176.91
2022-12-18T09:23:52.268Z,98170.53
2022-12-18T09:26:18.929Z,98175.69
2022-12-18T09:28:45.488Z,98163.28
2022-12-18T09:31:13.532Z,98164.09
2022-12-18T09:33:40.126Z,98144.47
2022-12-18T09:36:08.852Z,98164.94
2022-12-18T09:38:36.864Z,98157.25
2022-12-18T09:41:45.179Z,98154.44
2022-12-18T09:44:21.236Z,98127.41
2022-12-18T09:46:54.547Z,98140.97
2022-12-18T09:49:26.046Z,98151.50
2022-12-18T09:52:03.313Z,98143.19
2022-12-18T09:54:44.477Z,98142.59
2022-12-18T09:57:23.740Z,98152.25
2022-12-18T10:00:19.506Z,98145.66
2022-12-18T10:02:46.911Z,98146.59
2022-12-18T10:05:28.989Z,98146.47
2022-12-18T10:08:26.282Z,98137.25
2022-12-18T10:11:04.338Z,98140.16
2022-12-18T10:13:46.067Z,98131.88
2022-12-18T10:16:33.860Z,98138.25
2022-12-18T10:19:30.180Z,98150.81
2022-12-18T10:22:05.007Z,98153.09
2022-12-18T10:25:04.993Z,98148.91
2022-12-18T10:27:31.969Z,98142.16
2022-12-18T10:30:02.188Z,98135.84
2022-12-18T10:32:31.600Z,98138.75
2022-12-18T10:35:00.877Z,98145.31
2022-12-18T10:37:30.106Z,98123.91
2022-12-18T10:40:18.422Z,98133.38
2022-12-18T10:43:03.722Z,98131.19
2022-12-18T10:45:30.592Z,98143.66
2022-12-18T10:47:57.425Z,98147.50
2022-12-18T10:51:01.454Z,98145.06
2022-12-18T10:53:23.731Z,98146.47
2022-12-18T10:55:52.811Z,98151.38
2022-12-18T10:58:37.056Z,98146.22
2022-12-18T11:01:09.548Z,98149.25
2022-12-18T11:03:38.914Z,98148.66
2022-12-18T11:06:15.670Z,98137.19
2022-12-18T11:08:43.496Z,98148.03
2022-12-18T11:11:32.038Z,98145.78
2022-12-18T11:14:06.667Z,98153.44
2022-12-18T11:32:45.999Z,98130.59
2022-12-18T11:35:26.052Z,98123.31
2022-12-18T11:38:00.300Z,98120.00
2022-12-18T11:40:41.835Z,98120.56
2022-12-18T11:43:16.869Z,98122.75
2022-12-18T11:45:54.074Z,98116.56
2022-12-18T11:48:28.217Z,98123.09
2022-12-18T11:51:00.451Z,98123.88
2022-12-18T11:53:27.989Z,98118.59
2022-12-18T11:55:54.449Z,98103.75
2022-12-18T11:58:37.718Z,98103.44
2022-12-18T12:01:17.454Z,98101.19
2022-12-18T12:04:01.882Z,98087.69
2022-12-18T12:06:46.320Z,98110.06
2022-12-18T12:09:42.949Z,98095.69
2022-12-18T12:12:15.619Z,98092.56
2022-12-18T12:15:02.111Z,98077.88
2022-12-18T12:18:11.308Z,98072.16
2022-12-18T12:20:58.065Z,98093.97
2022-12-18T12:23:39.432Z,98083.75
2022-12-18T12:26:17.268Z,98086.19
2022-12-18T12:28:52.552Z,98085.38
2022-12-18T12:31:37.189Z,98079.00
2022-12-18T12:34:18.817Z,98087.00
2022-12-18T12:36:54.616Z,98092.97
2022-12-18T12:39:28.138Z,98092.69
2022-12-18T12:42:14.020Z,98072.69
2022-12-18T12:44:56.258Z,98078.28
2022-12-18T12:47:32.266Z,98080.94
2022-12-18T12:50:03.581Z,98090.06
2022-12-18T12:52:39.347Z,98074.44
2022-12-18T12:55:17.245Z,98092.84
2022-12-18T12:57:59.257Z,98096.69
2022-12-18T13:00:29.026Z,98090.69
2022-12-18T13:03:16.523Z,98091.44
2022-12-18T13:05:57.999Z,98064.56
2022-12-18T13:08:35.303Z,98077.88
2022-12-18T13:11:21.137Z,98068.94
2022-12-18T13:13:52.039Z,98078.34
2022-12-18T13:16:21.709Z,98068.31
2022-12-18T13:18:53.232Z,98066.66
2022-12-18T13:21:25.993Z,98061.31
2022-12-18T13:23:53.680Z,98038.50
2022-12-18T13:26:28.001Z,98049.94
2022-12-18T13:28:57.189Z,98062.75
2022-12-18T13:31:42.278Z,98058.06
2022-12-18T13:37:42.177Z,98050.78
2022-12-18T13:40:41.856Z,98056.41
2022-12-18T13:43:20.543Z,98071.34
2022-12-18T13:46:05.219Z,98061.28
2022-12-18T13:48:39.023Z,98059.34
2022-12-18T13:51:11.802Z,98076.16
2022-12-18T13:53:50.808Z,98068.81
2022-12-18T13:56:18.963Z,98061.28
2022-12-18T13:58:45.874Z,98075.13
2022-12-18T14:01:25.363Z,98074.50
2022-12-18T14:03:52.300Z,98077.91
2022-12-18T14:06:18.850Z,98072.78
2022-12-18T14:08:47.627Z,98057.59
2022-12-18T14:11:23.234Z,98082.53
2022-12-18T14:13:50.308Z,98079.38
2022-12-18T14:16:18.621Z,98075.56
2022-12-18T14:18:48.939Z,98068.59
2022-12-18T14:21:36.051Z,98070.69
2022-12-18T14:24:19.451Z,98065.31
2022-12-18T14:26:48.345Z,98073.50
2022-12-18T14:29:24.821Z,98067.06
2022-12-18T14:32:18.758Z,98062.09
2022-12-18T14:34:54.976Z,98061.03
2022-12-18T14:37:24.489Z,98011.81
2022-12-18T14:39:55.364Z,98061.41
2022-12-18T14:42:22.014Z,98025.69
2022-12-18T14:45:12.909Z,98042.38
2022-12-18T14:47:35.302Z,98055.44
2022-12-18T14:50:01.983Z,98054.63
2022-12-18T14:52:32.099Z,98061.97
2022-12-18T14:54:58.803Z,98064.44
2022-12-18T14:57:30.318Z,98063.84
2022-12-18T15:00:06.530Z,98064.19
2022-12-18T15:02:37.296Z,98061.84
2022-12-18T15:05:21.559Z,98069.91
2022-12-18T15:07:54.561Z,98064.75
2022-12-18T15:10:27.120Z,98068.63
2022-12-18T15:12:56.441Z,98079.00
2022-12-18T15:15:53.668Z,98065.81
2022-12-18T15:18:24.390Z,98070.72
2022-12-18T15:20:50.884Z,98072.59
2022-12-18T15:23:19.246Z,98068.50
2022-12-18T15:25:47.737Z,98081.00
2022-12-18T15:28:24.966Z,98073.19
2022-12-18T15:31:03.435Z,98075.03
2022-12-18T15:33:39.159Z,98079.22
2022-12-18T15:36:10.336Z,98079.91
2022-12-18T15:38:37.192Z,98084.47
2022-12-18T15:41:04.026Z,98079.34
2022-12-18T15:43:37.938Z,98084.47
2022-12-18T15:46:06.135Z,98089.84
2022-12-18T15:48:35.188Z,98086.81
2022-12-18T15:51:03.138Z,98079.09
2022-12-18T15:53:34.054Z,98087.25
2022-12-18T15:56:18.985Z,98088.03
2022-12-18T15:58:45.499Z,98095.38
2022-12-18T16:01:12.746Z,98084.69
2022-12-18T16:03:39.769Z,98088.63
2022-12-18T16:06:06.976Z,98087.34
2022-12-18T16:08:33.642Z,98088.03
2022-12-18T16:11:00.880Z,98078.28
2022-12-18T16:13:27.713Z,98088.31
2022-12-18T16:15:54.376Z,98070.41
2022-12-18T16:18:21.041Z,98084.22
2022-12-18T16:20:47.620Z,98079.88
2022-12-18T16:23:14.227Z,98073.59
2022-12-18T16:25:40.791Z,98067.41
2022-12-18T16:28:07.385Z,98069.31
2022-12-18T16:30:38.215Z,98070.38
2022-12-18T16:33:07.226Z,98079.47
2022-12-18T16:35:34.840Z,98059.50
2022-12-18T16:38:01.505Z,98078.59
2022-12-18T16:40:28.141Z,98073.97
2022-12-18T16:42:54.685Z,98066.84
2022-12-18T16:45:21.207Z,98073.03
2022-12-18T16:47:47.845Z,98071.56
2022-12-18T16:50:14.829Z,98064.84
2022-12-18T16:52:41.752Z,98070.22
2022-12-18T16:55:09.176Z,98073.91
2022-12-18T16:57:35.894Z,98073.03
2022-12-18T17:00:05.632Z,98076.47
2022-12-18T17:02:33.729Z,98072.16
2022-12-18T17:05:00.871Z,98070.91
2022-12-18T17:07:28.407Z,98072.44
2022-12-18T17:09:55.515Z,98075.41
2022-12-18T17:12:22.415Z,98061.91
2022-12-18T17:14:49.250Z,98066.78
2022-12-18T17:17:23.927Z,98044.03
2022-12-18T17:19:52.169Z,98030.63
2022-12-18T17:22:19.355Z,98048.72
2022-12-18T17:24:47.031Z,98059.44
2022-12-18T17:27:14.034Z,98051.72
2022-12-18T17:29:46.782Z,98035.88
2022-12-18T17:32:14.743Z,98048.97
2022-12-18T17:34:41.455Z,98038.06
2022-12-18T17:37:08.608Z,98044.31
2022-12-18T17:39:35.692Z,98055.03
2022-12-18T17:42:02.207Z,98042.09
2022-12-18T17:44:28.748Z,98055.06
2022-12-18T17:46:55.527Z,98050.38
2022-12-18T17:49:22.448Z,98052.72
2022-12-18T17:51:49.121Z,98046.66
2022-12-18T17:54:16.360Z,98033.09
2022-12-18T17:56:43.357Z,98049.91
2022-12-18T17:59:10.741Z,98048.63
2022-12-18T18:01:42.600Z,98037.25
2022-12-18T18:04:10.971Z,98042.59
2022-12-18T18:06:39.057Z,98037.50
2022-12-18T18:09:15.154Z,98046.03
2022-12-18T18:12:05.266Z,98046.28
2022-12-18T18:14:33.042Z,98055.91
2022-12-18T18:17:03.632Z,98048.59
2022-12-18T18:19:33.107Z,98057.75
2022-12-18T18:21:59.777Z,98047.09
2022-12-18T18:24:27.195Z,98049.06
2022-12-18T18:26:55.585Z,98015.34
2022-12-18T18:29:26.076Z,98038.19
2022-12-18T18:31:53.777Z,98036.44
2022-12-18T18:34:22.711Z,98047.13
2022-12-18T18:36:49.360Z,98036.75
2022-12-18T18:39:16.019Z,98040.78
2022-12-18T18:41:47.743Z,98037.19
2022-12-18T18:44:16.024Z,98043.75
2022-12-18T18:46:42.823Z,98049.44
2022-12-18T18:49:09.601Z,98042.44
2022-12-18T18:51:36.213Z,98040.13
2022-12-18T18:54:02.931Z,98032.50
2022-12-18T18:59:17.042Z,98042.81
2022-12-18T19:01:44.205Z,98040.34
2022-12-18T19:04:10.924Z,98042.09
2022-12-18T19:06:37.514Z,98040.59
2022-12-18T19:09:06.655Z,98015.53
2022-12-18T19:11:52.419Z,98038.28
2022-12-18T19:14:19.624Z,98028.94
2022-12-18T19:16:46.284Z,98026.28
2022-12-18T19:19:14.365Z,98005.19
2022-12-18T19:21:41.117Z,98022.28
2022-12-18T19:24:09.560Z,98033.00
2022-12-18T19:26:37.572Z,98032.22
2022-12-18T19:29:06.948Z,98028.34
2022-12-18T19:31:36.446Z,98026.88
2022-12-18T19:34:07.128Z,98024.88
2022-12-18T19:36:36.814Z,98012.22
2022-12-18T19:39:10.862Z,98018.03
2022-12-18T19:41:37.877Z,98018.88
2022-12-18T19:44:08.321Z,98014.69
2022-12-18T19:46:35.779Z,98020.28
2022-12-18T19:49:02.888Z,98024.97
2022-12-18T19:51:31.747Z,98011.16
2022-12-18T19:54:01.583Z,98014.81
2022-12-18T19:56:31.655Z,98006.13
2022-12-18T19:58:58.601Z,98007.03
2022-12-18T20:01:26.319Z,98009.13
2022-12-18T20:03:55.190Z,98002.91
2022-12-18T20:06:46.061Z,98002.31
2022-12-18T20:09:12.713Z,98008.34
2022-12-18T20:11:41.952Z,98003.16
2022-12-18T20:14:10.744Z,97988.94
2022-12-18T20:16:38.729Z,98006.66
2022-12-18T20:19:06.310Z,98010.03
2022-12-18T20:21:33.386Z,97996.81
2022-12-18T20:24:01.339Z,97976.97
2022-12-18T20:26:28.042Z,97996.50
2022-12-18T20:28:55.635Z,97994.53
2022-12-18T20:31:22.563Z,97989.47
2022-12-18T20:34:14.173Z,97998.28
2022-12-18T20:36:41.655Z,98003.00
2022-12-18T20:39:09.042Z,97996.03
2022-12-18T20:41:38.973Z,98009.59
2022-12-18T20:44:11.003Z,98022.97
2022-12-18T20:46:50.238Z,98010.44
2022-12-18T20:49:16.832Z,97994.41
2022-12-18T20:51:43.412Z,98010.41
2022-12-18T20:54:11.956Z,97981.75
2022-12-18T20:56:38.678Z,97987.94
2022-12-18T20:59:05.238Z,97987.59
2022-12-18T21:01:31.929Z,97986.19
2022-12-18T21:03:59.253Z,97981.66
2022-12-18T21:06:26.442Z,97978.81
2022-12-18T21:08:52.979Z,97985.78
2022-12-18T21:11:38.171Z,97986.50
2022-12-18T21:14:10.051Z,97956.25
2022-12-18T21:16:37.179Z,97976.19
2022-12-18T21:19:03.756Z,97970.91
2022-12-18T21:21:30.309Z,97964.41
2022-12-18T21:24:02.201Z,97953.09
2022-12-18T21:26:28.902Z,97945.53
2022-12-18T21:29:00.709Z,97955.47
2022-12-18T21:31:29.662Z,97953.84
2022-12-18T21:34:02.217Z,97968.94
2022-12-18T21:36:30.774Z,97960.94
2022-12-18T21:38:58.538Z,97964.56
2022-12-18T21:41:44.859Z,97960.09
2022-12-18T21:44:14.095Z,97961.38
2022-12-18T21:46:44.085Z,97974.78
2022-12-18T21:49:14.463Z,97979.53
2022-12-18T21:51:41.420Z,97991.94
2022-12-18T21:54:08.013Z,97988.53
2022-12-18T21:56:54.121Z,97994.38
2022-12-18T21:59:29.566Z,97980.25
2022-12-18T22:01:59.205Z,97968.19
2022-12-18T22:04:26.413Z,97971.72
2022-12-18T22:06:54.082Z,97976.19
2022-12-18T22:09:23.505Z,97974.06
2022-12-18T22:11:51.360Z,97975.66
2022-12-18T22:14:20.279Z,97962.63
2022-12-18T22:16:47.840Z,97952.50
2022-12-18T22:19:15.139Z,97934.94
2022-12-18T22:21:47.299Z,97929.75
2022-12-18T22:24:19.680Z,97934.34
2022-12-18T22:26:47.035Z,97930.25
2022-12-18T22:29:40.017Z,97935.25
2022-12-18T22:32:10.400Z,97918.50
2022-12-18T22:34:39.407Z,97945.97
2022-12-18T22:37:06.126Z,97938.31
2022-12-18T22:39:32.972Z,97946.59
2022-12-18T22:42:00.229Z,97936.44
2022-12-18T22:44:27.313Z,97940.97
2022-12-18T22:47:05.646Z,97956.03
2022-12-18T22:49:34.912Z,97920.44
2022-12-18T22:52:04.354Z,97940.72
2022-12-18T22:54:30.926Z,97936.47
2022-12-18T22:56:57.653Z,97923.81
2022-12-18T22:59:24.385Z,97910.72
2022-12-18T23:17:42.371Z,97917.81
2022-12-18T23:20:09.333Z,97922.25
2022-12-18T23:22:35.866Z,97921.13
2022-12-18T23:25:02.416Z,97882.44
2022-12-18T23:27:28.954Z,97937.28
2022-12-18T23:29:55.519Z,97937.66
2022-12-18T23:32:24.945Z,97952.66
2022-12-18T23:34:51.477Z,97951.81
2022-12-18T23:37:35.316Z,97908.25
2022-12-18T23:40:04.922Z,97939.94
2022-12-18T23:42:31.438Z,97942.16
2022-12-18T23:44:58.047Z,97967.50
2022-12-18T23:47:26.241Z,97968.69
2022-12-18T23:49:52.781Z,97952.91
2022-12-18T23:52:19.310Z,97949.72
2022-12-18T23:54:46.035Z,97954.63
2022-12-18T23:57:12.761Z,97916.78
2022-12-18T23:59:39.549Z,97927.69
